createdAt,value
2019-02-11T00:04:25.918Z,97571.73
2019-02-11T00:10:30.465Z,97600.37
2019-02-11T00:16:35.921Z,97609.92
2019-02-11T00:22:40.457Z,97627.55
2019-02-11T00:28:45.014Z,97656.09
2019-02-11T00:34:49.540Z,97658.71
2019-02-11T00:40:54.160Z,97673.77
2019-02-11T00:47:00.296Z,97690.78
2019-02-11T00:53:08.151Z,97698.86
2019-02-11T00:59:12.713Z,97725.63
2019-02-11T01:05:17.240Z,97739.25
2019-02-11T01:11:21.852Z,97774.63
2019-02-11T01:17:26.474Z,97789.30
2019-02-11T01:23:31.012Z,97810.98
2019-02-11T01:29:35.566Z,97823.35
2019-02-11T01:35:40.102Z,97849.77
2019-02-11T01:41:44.650Z,97855.94
2019-02-11T01:47:49.187Z,97873.04
2019-02-11T01:53:53.764Z,97885.72
2019-02-11T02:06:08.143Z,97905.72
2019-02-11T02:12:12.697Z,97916.71
2019-02-11T02:18:17.239Z,97931.66
2019-02-11T02:24:21.785Z,97943.60
2019-02-11T02:30:26.329Z,97946.49
2019-02-11T02:36:30.868Z,97948.63
2019-02-11T02:42:35.411Z,97961.97
2019-02-11T02:48:39.948Z,97984.24
2019-02-11T02:54:44.491Z,97990.81
2019-02-11T03:00:49.037Z,98013.27
2019-02-11T03:06:53.672Z,98019.84
2019-02-11T03:12:58.213Z,98013.29
2019-02-11T03:19:02.853Z,98023.07
2019-02-11T03:25:09.206Z,98031.89
2019-02-11T03:31:13.827Z,98053.45
2019-02-11T03:37:18.389Z,98066.97
2019-02-11T03:43:25.176Z,98087.11
2019-02-11T03:49:29.736Z,98089.06
2019-02-11T03:55:34.487Z,98091.35
2019-02-11T04:01:39.045Z,98104.05
2019-02-11T04:07:43.592Z,98113.91
2019-02-11T04:13:48.201Z,98120.33
2019-02-11T04:19:52.740Z,98147.82
2019-02-11T04:25:57.275Z,98156.48
2019-02-11T04:32:01.819Z,98148.66
2019-02-11T04:38:06.415Z,98187.34
2019-02-11T04:44:13.904Z,98204.91
2019-02-11T04:50:18.807Z,98214.91
2019-02-11T04:56:27.066Z,98234.28
2019-02-11T05:02:31.630Z,98235.09
2019-02-11T05:08:36.180Z,98251.53
2019-02-11T05:14:43.970Z,98263.16
2019-02-11T05:20:48.194Z,98277.31
2019-02-11T05:26:52.740Z,98279.85
2019-02-11T05:32:57.371Z,98284.84
2019-02-11T05:39:02.131Z,98301.42
2019-02-11T05:45:08.768Z,98312.88
2019-02-11T05:51:13.310Z,98337.02
2019-02-11T05:57:17.920Z,98347.98
2019-02-11T06:03:22.481Z,98375.42
2019-02-11T06:09:29.001Z,98381.70
2019-02-11T06:15:33.569Z,98394.73
2019-02-11T06:21:38.113Z,98401.60
2019-02-11T06:27:42.658Z,98409.33
2019-02-11T06:33:47.214Z,98421.89
2019-02-11T06:39:53.403Z,98447.35
2019-02-11T06:45:57.938Z,98455.94
2019-02-11T06:52:02.657Z,98479.80
2019-02-11T06:58:07.199Z,98489.98
2019-02-11T07:04:11.753Z,98499.75
2019-02-11T07:10:16.298Z,98518.20
2019-02-11T07:16:20.845Z,98523.83
2019-02-11T07:22:25.375Z,98539.81
2019-02-11T07:28:29.913Z,98561.17
2019-02-11T07:34:37.274Z,98572.84
2019-02-11T07:40:41.821Z,98575.78
2019-02-11T07:46:46.543Z,98598.91
2019-02-11T07:52:51.096Z,98602.42
2019-02-11T07:58:55.636Z,98614.85
2019-02-11T08:05:01.675Z,98621.74
2019-02-11T08:11:06.223Z,98634.08
2019-02-11T08:17:10.784Z,98633.70
2019-02-11T08:23:16.282Z,98647.35
2019-02-11T08:29:20.830Z,98662.91
2019-02-11T08:35:25.445Z,98676.55
2019-02-11T08:41:29.994Z,98680.23
2019-02-11T08:47:35.800Z,98697.70
2019-02-11T08:53:43.576Z,98703.18
2019-02-11T08:59:48.183Z,98729.43
2019-02-11T09:05:53.861Z,98745.22
2019-02-11T09:11:58.410Z,98749.58
2019-02-11T09:18:03.445Z,98766.81
2019-02-11T09:24:08.123Z,98784.38
2019-02-11T09:30:16.289Z,98795.27
2019-02-11T09:36:20.834Z,98810.30
2019-02-11T09:42:26.590Z,98837.02
2019-02-11T09:48:31.148Z,98851.61
2019-02-11T09:54:35.743Z,98858.84
2019-02-11T10:00:40.293Z,98869.54
2019-02-11T10:06:44.838Z,98869.30
2019-02-11T10:12:49.372Z,98871.58
2019-02-11T10:18:55.820Z,98885.98
2019-02-11T10:25:00.371Z,98899.34
2019-02-11T10:31:05.055Z,98913.34
2019-02-11T10:37:09.671Z,98928.74
2019-02-11T10:43:14.208Z,98935.80
2019-02-11T10:49:18.774Z,98932.39
2019-02-11T10:55:23.789Z,98937.95
2019-02-11T11:01:28.398Z,98956.78
2019-02-11T11:07:34.788Z,98975.44
2019-02-11T11:13:39.672Z,98980.89
2019-02-11T11:19:44.220Z,98995.37
2019-02-11T11:25:48.899Z,99011.55
2019-02-11T11:31:53.474Z,99012.03
2019-02-11T11:37:58.971Z,99030.80
2019-02-11T11:44:03.647Z,99035.61
2019-02-11T11:50:10.367Z,99041.53
2019-02-11T11:56:15.069Z,99037.16
2019-02-11T12:02:19.787Z,99032.42
2019-02-11T12:08:24.393Z,99043.23
2019-02-11T12:14:29.000Z,99053.11
2019-02-11T12:20:34.387Z,99103.69
2019-02-11T12:26:39.347Z,99127.91
2019-02-11T12:32:43.953Z,99118.48
2019-02-11T12:38:48.571Z,99108.16
2019-02-11T12:44:53.124Z,99121.62
2019-02-11T12:50:57.671Z,99148.64
2019-02-11T12:57:05.517Z,99157.16
2019-02-11T13:03:10.059Z,99177.39
2019-02-11T13:09:14.716Z,99172.59
2019-02-11T13:15:56.840Z,99167.80
2019-02-11T13:21:28.651Z,99192.98
2019-02-11T13:27:33.190Z,99196.13
2019-02-11T13:33:37.724Z,99202.56
2019-02-11T13:39:43.588Z,99211.91
2019-02-11T13:45:48.223Z,99224.54
2019-02-11T13:51:52.811Z,99230.27
2019-02-11T13:57:57.828Z,99241.13
2019-02-11T14:04:02.499Z,99260.39
2019-02-11T14:10:07.952Z,99274.97
2019-02-11T14:16:12.505Z,99281.62
2019-02-11T14:22:17.039Z,99286.68
2019-02-11T14:28:21.677Z,99315.45
2019-02-11T14:34:26.217Z,99331.20
2019-02-11T14:40:32.404Z,99349.25
2019-02-11T14:46:36.936Z,99358.78
2019-02-11T14:52:41.548Z,99374.61
2019-02-11T14:58:46.094Z,99388.47
2019-02-11T15:04:50.650Z,99400.20
2019-02-11T15:10:57.621Z,99418.08
2019-02-11T15:17:04.477Z,99438.56
2019-02-11T15:23:09.001Z,99452.33
2019-02-11T15:29:13.537Z,99458.67
2019-02-11T15:35:18.151Z,99475.33
2019-02-11T15:41:22.690Z,99502.45
2019-02-11T15:47:27.257Z,99530.52
2019-02-11T15:53:35.294Z,99550.29
2019-02-11T15:59:39.906Z,99558.27
2019-02-11T16:05:49.653Z,99564.59
2019-02-11T16:11:54.304Z,99590.84
2019-02-11T16:17:58.860Z,99601.21
2019-02-11T16:24:03.422Z,99622.58
2019-02-11T16:30:15.368Z,99647.14
2019-02-11T16:36:19.898Z,99658.73
2019-02-11T16:42:24.461Z,99686.27
2019-02-11T16:48:31.770Z,99698.77
2019-02-11T16:54:36.327Z,99704.58
2019-02-11T17:00:41.532Z,99721.48
2019-02-11T17:06:46.075Z,99740.70
2019-02-11T17:12:50.627Z,99760.02
2019-02-11T17:18:55.251Z,99768.00
2019-02-11T17:24:59.800Z,99784.01
2019-02-11T17:31:04.413Z,99805.64
2019-02-11T17:37:09.041Z,99824.60
2019-02-11T17:43:13.583Z,99838.28
2019-02-11T17:49:18.132Z,99864.27
2019-02-11T17:55:22.809Z,99881.55
2019-02-11T18:01:27.502Z,99890.89
2019-02-11T18:07:32.042Z,99902.40
2019-02-11T18:13:36.589Z,99916.09
2019-02-11T18:19:41.142Z,99928.66
2019-02-11T18:25:45.836Z,99946.25
2019-02-11T18:31:50.384Z,99947.50
2019-02-11T18:37:54.926Z,99962.82
2019-02-11T18:43:59.481Z,99968.53
2019-02-11T18:50:05.977Z,99987.17
2019-02-11T18:56:10.535Z,99998.06
2019-02-11T19:02:15.273Z,100018.52
2019-02-11T19:08:19.836Z,100028.52
2019-02-11T19:14:24.472Z,100035.92
2019-02-11T19:20:33.703Z,100033.27
2019-02-11T19:26:38.266Z,100043.66
2019-02-11T19:32:43.479Z,100044.77
2019-02-11T19:38:48.024Z,100046.12
2019-02-11T19:44:52.584Z,100041.23
2019-02-11T19:50:57.123Z,100065.67
2019-02-11T19:57:01.706Z,100073.20
2019-02-11T20:03:06.345Z,100090.25
2019-02-11T20:09:10.954Z,100110.80
2019-02-11T20:15:22.250Z,100109.97
2019-02-11T20:21:26.777Z,100113.12
2019-02-11T20:27:31.381Z,100117.56
2019-02-11T20:33:35.951Z,100124.83
2019-02-11T20:39:42.070Z,100132.19
2019-02-11T20:45:46.968Z,100135.75
2019-02-11T20:51:53.706Z,100139.94
2019-02-11T20:58:01.959Z,100139.33
2019-02-11T21:04:06.865Z,100159.09
2019-02-11T21:10:14.859Z,100144.83
2019-02-11T21:16:19.445Z,100157.27
2019-02-11T21:22:24.135Z,100176.12
2019-02-11T21:28:28.785Z,100197.11
2019-02-11T21:34:33.331Z,100183.41
2019-02-11T21:40:37.891Z,100211.55
2019-02-11T21:46:42.443Z,100218.50
2019-02-11T21:52:47.073Z,100240.06
2019-02-11T21:58:51.645Z,100237.23
2019-02-11T22:04:56.208Z,100244.47
2019-02-11T22:11:00.757Z,100253.75
2019-02-11T22:17:05.396Z,100255.50
2019-02-11T22:23:10.007Z,100262.62
2019-02-11T22:29:15.114Z,100268.48
2019-02-11T22:35:19.672Z,100265.80
2019-02-11T22:41:24.210Z,100265.56
2019-02-11T22:47:28.753Z,100264.56
2019-02-11T22:53:33.302Z,100272.88
2019-02-11T22:59:37.854Z,100272.73
2019-02-11T23:05:42.677Z,100279.80
2019-02-11T23:11:47.294Z,100287.09
2019-02-11T23:17:51.828Z,100282.83
2019-02-11T23:23:56.363Z,100275.30
2019-02-11T23:30:02.378Z,100310.70
2019-02-11T23:36:06.930Z,100324.41
2019-02-11T23:42:11.475Z,100330.77
2019-02-11T23:48:16.025Z,100333.18
2019-02-11T23:54:20.571Z,100342.36
